Time;durP1;ratioP1;P1;durP2;ratioP2;P2;SDS_P1;SDS_P2;PMS_P1;PMS_P2;Temp;Humidity;BMP_temperature;BMP_pressure;BME280_temperature;BME280_humidity;BME280_pressure;Samples;Min_cycle;Max_cycle;Signal;HPM_P1;HPM_P2
2021/06/13 00:02:21;;;;;;;1.75;1.30;;;;;;;17.79;63.48;97261.97;1695793;83;21061;-63
2021/06/13 00:04:49;;;;;;;1.82;1.37;;;;;;;17.76;63.75;97259.75;1695935;84;21093;-64
2021/06/13 00:07:16;;;;;;;2.62;1.45;;;;;;;17.74;63.79;97251.29;1695585;85;21104;-66
2021/06/13 00:09:43;;;;;;;3.52;1.60;;;;;;;17.72;63.33;97254.11;1696036;84;21035;-63
2021/06/13 00:12:12;;;;;;;1.92;1.50;;;;;;;17.70;63.86;97250.89;1695929;85;21076;-62
2021/06/13 00:14:41;;;;;;;3.58;1.42;;;;;;;17.69;63.84;97253.21;1662364;86;21493;-63
2021/06/13 00:17:08;;;;;;;1.55;1.35;;;;;;;17.68;63.83;97248.96;1686048;85;21126;-63
2021/06/13 00:19:35;;;;;;;1.98;1.30;;;;;;;17.69;63.58;97248.46;1686350;85;21231;-63
2021/06/13 00:22:03;;;;;;;1.55;1.30;;;;;;;17.70;63.36;97246.14;1695823;84;21565;-63
2021/06/13 00:24:30;;;;;;;2.15;1.12;;;;;;;17.72;63.41;97245.42;1696071;84;21049;-62
2021/06/13 00:26:57;;;;;;;2.02;1.30;;;;;;;17.71;63.33;97244.61;1695782;84;21053;-63
2021/06/13 00:29:24;;;;;;;1.82;1.40;;;;;;;17.77;62.82;97243.00;1695840;84;21628;-65
2021/06/13 00:31:51;;;;;;;1.65;1.05;;;;;;;17.77;63.31;97244.31;1662123;86;21029;-64
2021/06/13 00:34:18;;;;;;;2.33;0.98;;;;;;;17.77;63.18;97237.74;1662000;85;21089;-64
2021/06/13 00:36:45;;;;;;;2.37;1.42;;;;;;;17.80;62.78;97243.89;1686372;85;21021;-64
2021/06/13 00:39:12;;;;;;;1.57;1.17;;;;;;;17.80;62.83;97246.02;1686295;84;21129;-65
2021/06/13 00:41:39;;;;;;;2.62;1.40;;;;;;;17.81;62.75;97245.52;1729993;83;21081;-64
2021/06/13 00:44:07;;;;;;;1.45;0.93;;;;;;;17.79;62.64;97238.33;1730121;83;21485;-64
2021/06/13 00:46:34;;;;;;;1.95;1.50;;;;;;;17.77;62.00;97236.43;1730089;83;21037;-64
2021/06/13 00:49:01;;;;;;;1.35;1.20;;;;;;;17.71;63.21;97239.86;1730217;82;21040;-64
2021/06/13 00:51:28;;;;;;;1.87;1.37;;;;;;;17.72;63.08;97236.23;1730382;83;21644;-64
2021/06/13 00:53:56;;;;;;;1.50;1.30;;;;;;;17.66;63.60;97227.88;1730393;83;21479;-64
2021/06/13 00:56:24;;;;;;;1.98;1.62;;;;;;;17.59;64.54;97238.89;1730319;83;21663;-67
2021/06/13 00:58:53;;;;;;;2.77;1.42;;;;;;;17.55;64.95;97216.12;1726285;83;21441;-64
2021/06/13 01:01:22;;;;;;;3.33;1.37;;;;;;;17.45;66.11;97212.62;1730147;83;21056;-64
2021/06/13 01:03:49;;;;;;;1.57;1.32;;;;;;;17.44;66.19;97203.63;1730278;83;21076;-64
2021/06/13 01:06:21;;;;;;;1.65;1.10;;;;;;;17.36;67.53;97203.83;1730387;83;21116;-64
2021/06/13 01:08:59;;;;;;;1.47;1.05;;;;;;;17.39;66.67;97203.45;1730055;82;21079;-64
2021/06/13 01:11:56;;;;;;;3.20;1.35;;;;;;;17.37;66.85;97189.20;1730271;83;21048;-64
2021/06/13 01:14:36;;;;;;;1.22;1.07;;;;;;;17.34;68.67;97182.25;1716186;83;21005;-64
2021/06/13 01:17:20;;;;;;;1.40;1.10;;;;;;;17.31;68.12;97171.66;1730153;83;21091;-65
2021/06/13 01:20:20;;;;;;;1.65;1.12;;;;;;;17.25;70.69;97175.09;1730270;83;21099;-64
2021/06/13 01:23:24;;;;;;;2.35;1.85;;;;;;;17.17;69.97;97158.73;1730300;83;21005;-64
2021/06/13 01:26:26;;;;;;;1.25;1.15;;;;;;;17.15;71.44;97147.16;1730277;83;21516;-64
2021/06/13 01:29:16;;;;;;;1.80;1.12;;;;;;;17.11;71.66;97131.52;1711498;83;21525;-64
2021/06/13 01:31:55;;;;;;;1.17;0.85;;;;;;;17.07;72.70;97124.56;1730074;83;21041;-64
2021/06/13 01:34:33;;;;;;;0.95;0.88;;;;;;;17.08;69.67;97134.52;1701955;83;20986;-64
2021/06/13 01:37:07;;;;;;;3.77;1.40;;;;;;;17.09;71.33;97124.34;1730458;83;21555;-64
2021/06/13 01:39:38;;;;;;;1.35;1.00;;;;;;;17.09;71.22;97126.47;1709732;83;21091;-64
2021/06/13 01:42:11;;;;;;;1.52;1.12;;;;;;;17.11;71.00;97126.27;1662511;85;21502;-64
2021/06/13 01:44:43;;;;;;;2.65;1.45;;;;;;;17.11;72.81;97124.16;1685728;85;21125;-66
2021/06/13 01:47:10;;;;;;;1.07;0.98;;;;;;;17.04;73.98;97113.67;1686152;84;21057;-64
2021/06/13 01:49:42;;;;;;;1.10;1.00;;;;;;;17.07;73.67;97108.83;1686207;85;20999;-64
2021/06/13 01:52:11;;;;;;;1.45;1.20;;;;;;;17.08;73.55;97112.23;1686194;85;21080;-64
2021/06/13 01:54:39;;;;;;;1.65;1.10;;;;;;;16.96;73.43;97094.99;1695577;85;21578;-64
2021/06/13 01:57:09;;;;;;;0.70;0.60;;;;;;;17.14;72.65;97111.43;1695882;85;21151;-64
2021/06/13 01:59:40;;;;;;;1.20;1.00;;;;;;;17.18;71.63;97111.32;1694516;84;21076;-64
2021/06/13 02:02:09;;;;;;;2.22;1.00;;;;;;;17.25;70.32;97109.48;1662107;86;21101;-64
2021/06/13 02:04:39;;;;;;;1.85;1.25;;;;;;;17.30;72.19;97112.31;1662308;84;21065;-65
2021/06/13 02:07:11;;;;;;;1.72;1.30;;;;;;;17.32;71.93;97103.72;1661811;86;21042;-64
2021/06/13 02:09:39;;;;;;;1.62;1.00;;;;;;;17.34;72.71;97104.83;1662115;85;21010;-63
2021/06/13 02:12:08;;;;;;;2.60;1.00;;;;;;;17.36;72.71;97098.86;1662507;86;21088;-65
2021/06/13 02:14:42;;;;;;;1.42;1.00;;;;;;;17.38;72.61;97093.72;1685177;85;21554;-62
2021/06/13 02:17:11;;;;;;;1.30;1.12;;;;;;;17.42;72.50;97084.42;1686226;85;21563;-64
2021/06/13 02:19:43;;;;;;;2.00;1.35;;;;;;;17.44;72.55;97078.45;1685940;85;21176;-63
2021/06/13 02:22:18;;;;;;;1.42;1.20;;;;;;;17.43;72.93;97075.52;1685374;85;21037;-64
2021/06/13 02:24:43;;;;;;;1.10;0.80;;;;;;;17.41;73.05;97076.24;1685839;85;21106;-62
2021/06/13 02:27:15;;;;;;;1.47;1.05;;;;;;;17.39;73.59;97069.60;1683696;84;21514;-64
2021/06/13 02:29:45;;;;;;;2.05;1.40;;;;;;;17.38;73.87;97068.80;1686352;84;21050;-64
2021/06/13 02:32:15;;;;;;;1.80;1.25;;;;;;;17.41;73.12;97068.37;1686282;85;21518;-63
2021/06/13 02:34:46;;;;;;;1.55;0.98;;;;;;;17.46;72.22;97074.31;1683457;85;21065;-64
2021/06/13 02:37:17;;;;;;;1.15;0.90;;;;;;;17.51;71.75;97077.10;1686234;85;21030;-64
2021/06/13 02:39:43;;;;;;;1.02;0.82;;;;;;;17.54;72.79;97082.77;1695804;82;21537;-64
2021/06/13 02:42:13;;;;;;;1.15;0.80;;;;;;;17.56;71.94;97079.42;1695080;84;21232;-64
2021/06/13 02:44:41;;;;;;;2.72;0.95;;;;;;;17.54;73.09;97074.09;1695046;84;21037;-64
2021/06/13 02:47:09;;;;;;;1.75;1.12;;;;;;;17.54;72.33;97079.34;1695851;85;20961;-64
2021/06/13 02:49:36;;;;;;;1.15;0.75;;;;;;;17.55;71.69;97078.30;1695629;84;21177;-64
2021/06/13 02:52:47;;;;;;;1.07;0.70;;;;;;;17.59;71.25;97082.16;1695857;85;21108;-65
2021/06/13 02:55:24;;;;;;;1.42;0.95;;;;;;;17.63;71.00;97084.66;1639088;86;21518;-64
2021/06/13 02:57:58;;;;;;;1.07;0.98;;;;;;;17.63;71.61;97083.86;1692599;84;21592;-64
2021/06/13 03:00:26;;;;;;;2.15;1.20;;;;;;;17.67;71.62;97077.17;1695114;84;21080;-64
2021/06/13 03:02:56;;;;;;;1.37;1.27;;;;;;;17.65;73.00;97080.03;1662215;86;21612;-64
2021/06/13 03:05:26;;;;;;;1.55;1.00;;;;;;;17.65;72.83;97073.47;1686116;84;21062;-64
2021/06/13 03:07:56;;;;;;;1.72;1.10;;;;;;;17.65;73.06;97073.97;1686157;85;21042;-64
2021/06/13 03:10:24;;;;;;;2.30;1.17;;;;;;;17.62;73.21;97074.39;1686173;85;21077;-64
2021/06/13 03:12:54;;;;;;;1.62;1.10;;;;;;;17.58;73.65;97068.75;1683871;85;21072;-64
2021/06/13 03:15:25;;;;;;;2.27;1.42;;;;;;;17.50;73.88;97079.45;1686535;85;21062;-64
2021/06/13 03:17:52;;;;;;;1.00;0.78;;;;;;;17.44;74.62;97094.20;1686458;85;21050;-64
2021/06/13 03:20:21;;;;;;;0.78;0.50;;;;;;;17.45;72.17;97142.25;1660941;85;21534;-64
2021/06/13 03:22:48;;;;;;;0.88;0.40;;;;;;;17.43;71.18;97136.41;1686094;85;21212;-64
2021/06/13 03:25:18;;;;;;;1.00;0.45;;;;;;;17.36;71.14;97132.47;1686336;85;20978;-64
2021/06/13 03:27:46;;;;;;;0.80;0.50;;;;;;;17.24;71.29;97140.66;1685927;85;21511;-64
2021/06/13 03:30:16;;;;;;;0.80;0.50;;;;;;;17.14;71.11;97144.22;1686462;85;21080;-64
2021/06/13 03:32:43;;;;;;;0.30;0.30;;;;;;;17.03;72.16;97148.28;1686318;85;21018;-64
2021/06/13 03:35:13;;;;;;;0.30;0.30;;;;;;;16.92;72.42;97154.13;1686240;85;21676;-64
2021/06/13 03:37:41;;;;;;;2.27;0.50;;;;;;;16.82;72.93;97171.25;1686460;85;21643;-64
2021/06/13 03:40:11;;;;;;;0.45;0.45;;;;;;;16.71;74.16;97173.16;1660804;85;21043;-64
2021/06/13 03:42:40;;;;;;;0.50;0.42;;;;;;;16.58;74.78;97188.36;1660914;85;21180;-64
2021/06/13 03:45:10;;;;;;;0.60;0.60;;;;;;;16.46;76.33;97178.94;1686430;84;21097;-64
2021/06/13 03:47:39;;;;;;;0.75;0.37;;;;;;;16.39;76.31;97185.98;1695629;85;21092;-64
2021/06/13 03:50:08;;;;;;;0.72;0.20;;;;;;;16.33;75.56;97182.04;1676352;85;21056;-63
2021/06/13 03:52:35;;;;;;;0.78;0.30;;;;;;;16.28;74.71;97199.66;1696010;83;21167;-65
2021/06/13 03:55:03;;;;;;;0.30;0.30;;;;;;;16.22;75.72;97190.47;1696087;83;21599;-64
2021/06/13 03:57:32;;;;;;;0.33;0.30;;;;;;;16.17;75.30;97189.75;1695896;85;21052;-64
2021/06/13 04:00:02;;;;;;;0.40;0.40;;;;;;;16.13;73.96;97181.97;1662181;86;21168;-65
2021/06/13 04:02:32;;;;;;;0.30;0.30;;;;;;;16.12;74.88;97196.87;1685006;85;21554;-64
2021/06/13 04:05:01;;;;;;;0.23;0.23;;;;;;;16.08;74.99;97199.58;1686437;85;21045;-65
2021/06/13 04:07:29;;;;;;;0.28;0.25;;;;;;;16.10;74.74;97211.19;1686432;85;21041;-64
2021/06/13 04:09:57;;;;;;;0.20;0.20;;;;;;;15.99;76.27;97221.69;1686473;85;21574;-64
2021/06/13 04:12:25;;;;;;;0.10;0.10;;;;;;;16.00;75.34;97235.09;1686447;85;21533;-64
2021/06/13 04:14:53;;;;;;;0.90;0.30;;;;;;;15.96;75.45;97229.13;1686196;84;21077;-64
2021/06/13 04:17:22;;;;;;;0.20;0.20;;;;;;;15.88;75.42;97234.02;1695868;85;21090;-63
2021/06/13 04:19:50;;;;;;;0.25;0.20;;;;;;;15.85;73.93;97229.19;1662295;86;21041;-65
2021/06/13 04:22:18;;;;;;;0.53;0.20;;;;;;;15.68;76.46;97228.67;1662386;86;21041;-64
2021/06/13 04:24:49;;;;;;;0.40;0.20;;;;;;;15.78;75.58;97221.80;1662183;86;21091;-65
2021/06/13 04:27:20;;;;;;;0.15;0.15;;;;;;;15.80;74.18;97235.98;1662286;86;21033;-64
2021/06/13 04:29:47;;;;;;;0.40;0.33;;;;;;;15.79;74.25;97238.32;1686396;85;21057;-64
2021/06/13 04:32:14;;;;;;;0.20;0.20;;;;;;;15.72;75.49;97242.72;1695931;84;21105;-64
2021/06/13 04:34:41;;;;;;;1.67;0.30;;;;;;;15.71;73.75;97235.85;1695839;85;21057;-64
2021/06/13 04:37:09;;;;;;;0.35;0.20;;;;;;;15.59;75.80;97239.50;1695890;84;21145;-63
2021/06/13 04:39:38;;;;;;;0.30;0.30;;;;;;;15.61;74.65;97248.77;1668996;84;21045;-63
2021/06/13 04:42:07;;;;;;;0.30;0.30;;;;;;;15.50;75.91;97258.46;1690005;84;21141;-63
2021/06/13 04:44:35;;;;;;;0.47;0.30;;;;;;;15.45;75.53;97278.30;1690059;85;21140;-63
2021/06/13 04:47:04;;;;;;;0.70;0.65;;;;;;;15.43;75.43;97270.66;1690073;85;21061;-63
2021/06/13 04:49:32;;;;;;;0.20;0.20;;;;;;;15.30;76.38;97275.78;1690104;85;21188;-65
2021/06/13 04:52:01;;;;;;;0.20;0.20;;;;;;;15.23;75.93;97277.53;1690261;85;21033;-63
2021/06/13 04:54:51;;;;;;;0.30;0.30;;;;;;;15.32;75.33;97275.59;1689727;85;21054;-63
2021/06/13 04:57:50;;;;;;;1.40;0.50;;;;;;;15.30;75.20;97264.50;1689678;83;21080;-64
2021/06/13 05:00:17;;;;;;;0.47;0.40;;;;;;;15.24;75.33;97264.77;1690056;85;21013;-63
2021/06/13 05:02:46;;;;;;;0.60;0.40;;;;;;;15.21;75.55;97267.25;1689724;85;21190;-63
2021/06/13 05:05:18;;;;;;;0.35;0.30;;;;;;;15.25;75.20;97257.24;1690006;85;21041;-63
2021/06/13 05:07:45;;;;;;;0.37;0.30;;;;;;;15.17;76.70;97273.85;1689893;85;21021;-63
2021/06/13 05:10:13;;;;;;;0.42;0.30;;;;;;;15.25;75.13;97279.48;1690080;85;21037;-64
2021/06/13 05:12:47;;;;;;;0.57;0.30;;;;;;;15.26;76.77;97281.07;1689845;85;21601;-63
2021/06/13 05:15:16;;;;;;;1.25;0.47;;;;;;;15.26;76.59;97285.00;1689866;83;21037;-64
2021/06/13 05:17:43;;;;;;;0.40;0.20;;;;;;;15.24;76.86;97290.11;1662295;86;21104;-63
2021/06/13 05:20:12;;;;;;;0.85;0.37;;;;;;;15.29;76.23;97292.98;1689973;83;21085;-63
2021/06/13 05:22:57;;;;;;;0.30;0.30;;;;;;;15.26;77.82;97291.53;1662195;86;21061;-64
2021/06/13 05:25:29;;;;;;;0.33;0.25;;;;;;;15.26;76.22;97311.64;1689549;83;21042;-64
2021/06/13 05:27:57;;;;;;;0.33;0.30;;;;;;;15.28;74.84;97307.87;1670254;85;21494;-63
2021/06/13 05:30:28;;;;;;;0.70;0.40;;;;;;;15.29;75.96;97316.00;1690002;85;21164;-64
2021/06/13 05:32:55;;;;;;;0.65;0.30;;;;;;;15.29;76.06;97323.85;1689931;83;21053;-63
2021/06/13 05:35:24;;;;;;;0.42;0.40;;;;;;;15.26;75.60;97316.88;1660706;86;21184;-62
2021/06/13 05:37:52;;;;;;;0.20;0.20;;;;;;;15.20;76.49;97332.34;1689953;83;21510;-64
2021/06/13 05:40:21;;;;;;;0.30;0.20;;;;;;;15.16;76.48;97345.98;1650163;86;21098;-63
2021/06/13 05:42:48;;;;;;;0.30;0.20;;;;;;;15.15;75.91;97342.55;1715442;84;21478;-62
2021/06/13 05:45:19;;;;;;;0.53;0.40;;;;;;;15.12;76.69;97331.16;1715487;84;21682;-63
2021/06/13 05:47:46;;;;;;;0.50;0.50;;;;;;;15.20;75.75;97330.22;1715694;84;21029;-65
2021/06/13 05:50:14;;;;;;;0.37;0.30;;;;;;;15.17;76.71;97339.76;1715404;84;21034;-63
2021/06/13 05:52:42;;;;;;;0.40;0.40;;;;;;;15.04;76.76;97339.13;1715744;84;21061;-65
2021/06/13 05:55:11;;;;;;;0.30;0.20;;;;;;;15.23;75.47;97348.16;1715552;83;21026;-64
2021/06/13 05:57:38;;;;;;;0.37;0.30;;;;;;;15.23;76.38;97358.61;1715590;84;20981;-64
2021/06/13 06:00:10;;;;;;;1.07;0.40;;;;;;;15.28;75.01;97362.80;1715529;84;21100;-64
2021/06/13 06:02:40;;;;;;;2.30;0.40;;;;;;;15.21;77.25;97366.64;1715495;82;21151;-65
2021/06/13 06:05:11;;;;;;;0.30;0.30;;;;;;;15.19;77.43;97367.83;1715594;84;21494;-64
2021/06/13 06:07:38;;;;;;;0.37;0.37;;;;;;;15.27;76.08;97372.13;1715698;84;21264;-64
2021/06/13 06:10:08;;;;;;;0.35;0.30;;;;;;;15.27;76.44;97375.56;1715963;84;21001;-64
2021/06/13 06:12:38;;;;;;;0.88;0.25;;;;;;;15.17;76.93;97374.54;1715629;84;21147;-64
2021/06/13 06:15:09;;;;;;;0.40;0.30;;;;;;;15.19;76.46;97387.45;1716013;84;21058;-66
2021/06/13 06:17:36;;;;;;;0.35;0.35;;;;;;;15.28;76.26;97378.98;1715908;84;21382;-64
2021/06/13 06:20:25;;;;;;;0.25;0.25;;;;;;;15.42;76.07;97378.92;1715660;84;21117;-64
2021/06/13 06:22:53;;;;;;;0.23;0.23;;;;;;;15.55;74.88;97380.89;1629727;88;21522;-65
2021/06/13 06:25:21;;;;;;;0.40;0.30;;;;;;;15.78;75.08;97399.00;1629598;88;21117;-64
2021/06/13 06:27:50;;;;;;;0.60;0.37;;;;;;;16.04;73.69;97390.84;1629504;88;21124;-64
2021/06/13 06:30:20;;;;;;;0.72;0.35;;;;;;;16.23;72.51;97388.05;1629438;88;21050;-64
2021/06/13 06:32:48;;;;;;;0.70;0.42;;;;;;;16.33;71.78;97396.89;1629790;88;21077;-64
2021/06/13 06:35:16;;;;;;;0.28;0.25;;;;;;;16.13;72.48;97389.72;1629184;88;21027;-64
2021/06/13 06:37:44;;;;;;;0.30;0.30;;;;;;;16.34;72.08;97386.20;1629534;88;21029;-64
2021/06/13 06:40:14;;;;;;;0.55;0.30;;;;;;;16.35;71.91;97383.89;1629484;88;21145;-65
2021/06/13 06:42:42;;;;;;;0.40;0.30;;;;;;;16.33;71.64;97380.67;1629518;88;21526;-64
2021/06/13 06:45:12;;;;;;;0.70;0.35;;;;;;;16.36;70.77;97376.84;1629217;88;21087;-66
2021/06/13 06:47:41;;;;;;;0.30;0.20;;;;;;;16.40;70.51;97380.20;1629590;88;21002;-64
2021/06/13 06:50:09;;;;;;;0.70;0.53;;;;;;;16.44;69.81;97375.38;1629783;88;22387;-64
2021/06/13 06:52:36;;;;;;;0.85;0.40;;;;;;;16.47;69.76;97384.97;1629708;88;21153;-65
2021/06/13 06:55:06;;;;;;;0.40;0.40;;;;;;;16.54;69.80;97384.50;1629432;88;21614;-66
2021/06/13 06:57:32;;;;;;;0.70;0.42;;;;;;;16.64;69.98;97383.38;1629644;88;21149;-64
2021/06/13 06:59:59;;;;;;;0.70;0.50;;;;;;;16.63;69.80;97395.67;1629836;88;21062;-64
2021/06/13 07:02:26;;;;;;;1.80;0.53;;;;;;;16.76;68.85;97375.27;1629649;88;21057;-65
2021/06/13 07:04:53;;;;;;;0.75;0.45;;;;;;;16.82;68.39;97384.96;1613094;88;21121;-65
2021/06/13 07:07:20;;;;;;;0.70;0.50;;;;;;;16.96;68.11;97372.22;1629296;88;21780;-64
2021/06/13 07:09:47;;;;;;;0.60;0.60;;;;;;;17.04;67.98;97379.92;1629849;88;21113;-64
2021/06/13 07:12:13;;;;;;;0.60;0.53;;;;;;;17.11;67.29;97372.88;1629563;88;21550;-64
2021/06/13 07:14:40;;;;;;;0.50;0.50;;;;;;;17.06;67.81;97380.02;1629176;88;21142;-63
2021/06/13 07:17:07;;;;;;;0.47;0.40;;;;;;;17.18;66.74;97372.37;1629579;88;21023;-63
2021/06/13 07:19:34;;;;;;;0.72;0.65;;;;;;;17.23;66.56;97379.66;1629432;88;21078;-65
2021/06/13 07:22:01;;;;;;;0.70;0.60;;;;;;;17.20;66.08;97375.59;1631769;87;21538;-65
2021/06/13 07:24:28;;;;;;;1.12;1.02;;;;;;;17.17;66.55;97389.12;1634198;88;21070;-65
2021/06/13 07:26:55;;;;;;;1.10;0.75;;;;;;;17.13;66.29;97381.34;1634006;88;21090;-64
2021/06/13 07:29:22;;;;;;;1.60;0.93;;;;;;;17.07;66.02;97388.20;1633854;88;21236;-64
2021/06/13 07:31:49;;;;;;;1.95;0.70;;;;;;;17.02;66.73;97387.97;1647412;87;21522;-63
2021/06/13 07:34:16;;;;;;;0.60;0.60;;;;;;;17.04;66.16;97394.34;1647131;87;21063;-63
2021/06/13 07:36:44;;;;;;;0.93;0.53;;;;;;;17.12;66.08;97392.05;1647730;87;21051;-63
2021/06/13 07:39:11;;;;;;;0.72;0.65;;;;;;;17.22;65.85;97397.72;1647006;87;21099;-64
2021/06/13 07:41:38;;;;;;;0.75;0.75;;;;;;;17.37;65.39;97406.23;1647694;87;21137;-63
2021/06/13 07:44:05;;;;;;;0.65;0.65;;;;;;;17.56;65.28;97410.70;1647269;87;21559;-64
2021/06/13 07:46:34;;;;;;;0.60;0.55;;;;;;;17.74;64.76;97411.48;1647129;87;21059;-66
2021/06/13 07:49:03;;;;;;;13.10;6.72;;;;;;;17.94;64.42;97424.09;1647488;87;21098;-66
2021/06/13 07:51:30;;;;;;;10.10;5.95;;;;;;;18.01;63.31;97417.05;1633291;88;21030;-66
2021/06/13 07:53:57;;;;;;;13.62;7.40;;;;;;;18.02;63.22;97423.89;1633888;87;21214;-66
2021/06/13 07:56:25;;;;;;;29.95;13.53;;;;;;;17.95;62.72;97427.03;1633851;88;21081;-66
2021/06/13 07:58:52;;;;;;;4.97;3.27;;;;;;;17.87;62.97;97426.73;1633584;86;21521;-65
2021/06/13 08:01:19;;;;;;;3.22;1.25;;;;;;;17.88;63.16;97430.16;1632441;87;21506;-65
2021/06/13 08:03:47;;;;;;;1.45;1.00;;;;;;;17.84;63.04;97437.64;1633570;86;21228;-65
2021/06/13 08:06:14;;;;;;;1.07;0.90;;;;;;;17.80;63.11;97437.73;1638002;86;21074;-65
2021/06/13 08:08:41;;;;;;;2.87;1.15;;;;;;;17.80;62.94;97448.74;1633767;87;21164;-65
2021/06/13 08:11:09;;;;;;;2.15;0.82;;;;;;;17.76;62.76;97434.39;1633988;86;21081;-65
2021/06/13 08:13:37;;;;;;;1.77;0.95;;;;;;;17.73;62.73;97441.37;1637772;86;21061;-65
2021/06/13 08:16:06;;;;;;;1.35;0.90;;;;;;;17.73;62.98;97447.94;1633470;86;21154;-65
2021/06/13 08:18:33;;;;;;;0.70;0.65;;;;;;;18.01;62.74;97442.00;1624983;88;21126;-65
2021/06/13 08:21:01;;;;;;;2.02;0.55;;;;;;;18.22;62.35;97454.92;1633413;86;21063;-66
2021/06/13 08:23:30;;;;;;;1.60;0.70;;;;;;;18.33;61.33;97461.38;1631576;88;21097;-65
2021/06/13 08:25:58;;;;;;;3.47;0.95;;;;;;;18.44;61.57;97452.36;1637892;87;21128;-65
2021/06/13 08:28:27;;;;;;;0.70;0.65;;;;;;;18.62;60.69;97457.03;1638055;86;21073;-65
2021/06/13 08:30:54;;;;;;;0.90;0.53;;;;;;;18.85;60.61;97458.70;1637741;87;21061;-65
2021/06/13 08:33:23;;;;;;;0.68;0.68;;;;;;;19.03;60.04;97455.39;1637985;86;21085;-65
2021/06/13 08:35:52;;;;;;;1.15;0.70;;;;;;;19.01;59.75;97459.25;1637659;87;21625;-65
2021/06/13 08:38:21;;;;;;;1.77;1.05;;;;;;;19.30;58.62;97458.72;1637564;88;21148;-65
2021/06/13 08:40:48;;;;;;;0.50;0.50;;;;;;;19.54;57.71;97461.16;1612927;87;21057;-64
2021/06/13 08:43:16;;;;;;;0.90;0.78;;;;;;;19.67;56.57;97469.81;1637860;87;21539;-65
2021/06/13 08:45:44;;;;;;;1.20;0.78;;;;;;;19.76;56.66;97468.55;1615183;88;21088;-65
2021/06/13 08:48:14;;;;;;;2.85;1.10;;;;;;;19.88;56.44;97480.53;1630464;87;21095;-65
2021/06/13 08:50:41;;;;;;;2.12;0.70;;;;;;;19.87;55.90;97460.46;1630194;88;21063;-65
2021/06/13 08:53:09;;;;;;;1.50;1.00;;;;;;;19.84;55.49;97459.58;1630450;88;21064;-65
2021/06/13 08:55:36;;;;;;;0.57;0.57;;;;;;;19.74;54.72;97455.27;1630037;86;21063;-65
2021/06/13 08:58:05;;;;;;;0.82;0.55;;;;;;;19.81;55.39;97461.30;1632762;88;21053;-65
2021/06/13 09:00:33;;;;;;;1.05;0.65;;;;;;;19.93;54.88;97477.23;1637427;88;21057;-64
2021/06/13 09:03:04;;;;;;;0.57;0.57;;;;;;;20.03;52.77;97463.90;1633230;86;21131;-64
2021/06/13 09:05:31;;;;;;;0.40;0.40;;;;;;;20.08;51.70;97461.41;1630514;86;21055;-65
2021/06/13 09:08:14;;;;;;;1.45;0.50;;;;;;;20.17;50.46;97468.55;1630236;88;21020;-66
2021/06/13 09:10:44;;;;;;;0.45;0.45;;;;;;;20.27;50.54;97479.43;1630236;87;21185;-67
2021/06/13 09:13:26;;;;;;;0.72;0.47;;;;;;;20.29;49.66;97469.48;1630349;86;21114;-66
2021/06/13 09:15:58;;;;;;;1.02;0.60;;;;;;;20.26;49.79;97483.08;1630612;88;21063;-65
2021/06/13 09:18:42;;;;;;;2.05;0.47;;;;;;;20.17;49.61;97471.18;1630523;87;21657;-65
2021/06/13 09:21:18;;;;;;;1.45;0.50;;;;;;;20.40;49.88;97481.97;1630348;87;21056;-65
2021/06/13 09:23:45;;;;;;;0.53;0.50;;;;;;;20.54;50.08;97477.39;1627963;88;21122;-65
2021/06/13 09:26:16;;;;;;;0.50;0.50;;;;;;;20.62;48.55;97481.86;1630443;88;21154;-65
2021/06/13 09:28:52;;;;;;;1.10;0.98;;;;;;;20.74;46.60;97479.30;1630452;86;21080;-65
2021/06/13 09:31:29;;;;;;;1.20;0.75;;;;;;;20.84;48.27;97478.30;1631948;87;21522;-65
2021/06/13 09:33:59;;;;;;;2.05;1.00;;;;;;;20.74;48.70;97484.08;1630405;87;21071;-66
2021/06/13 09:36:30;;;;;;;2.15;1.67;;;;;;;20.50;47.76;97490.72;1590476;86;21073;-65
2021/06/13 09:39:05;;;;;;;1.70;1.10;;;;;;;20.28;48.29;97498.16;1630380;86;21134;-65
2021/06/13 09:41:36;;;;;;;1.98;1.12;;;;;;;20.17;48.36;97500.98;1630474;86;21097;-66
2021/06/13 09:44:12;;;;;;;2.05;0.70;;;;;;;20.12;49.03;97504.77;1633705;86;21160;-65
2021/06/13 09:46:41;;;;;;;;;;;;;;;20.29;49.03;97503.27;1633889;86;21519;-66
2021/06/13 09:49:14;;;;;;;0.95;0.65;;;;;;;20.57;49.20;97509.42;1633961;86;20160;-66
2021/06/13 09:51:53;;;;;;;2.92;0.80;;;;;;;20.94;48.49;97501.03;1598997;88;21114;-67
2021/06/13 09:54:26;;;;;;;0.50;0.50;;;;;;;21.15;48.08;97516.98;1630297;86;21087;-66
2021/06/13 09:56:59;;;;;;;1.77;0.80;;;;;;;21.14;45.99;97520.14;1630434;87;21118;-64
2021/06/13 09:59:32;;;;;;;0.40;0.40;;;;;;;21.28;45.17;97514.98;1636916;86;21089;-64
2021/06/13 10:02:02;;;;;;;29.07;14.20;;;;;;;21.40;45.72;97516.91;1637753;86;21069;-66
2021/06/13 10:04:34;;;;;;;8.48;4.22;;;;;;;21.33;45.38;97521.44;1636217;86;21456;-69
2021/06/13 10:07:18;;;;;;;1.40;1.22;;;;;;;21.49;44.70;97531.41;1632451;86;21117;-65
2021/06/13 10:09:51;;;;;;;7.60;5.00;;;;;;;21.86;42.38;97527.69;1635071;86;21563;-66
2021/06/13 10:12:20;;;;;;;10.32;6.58;;;;;;;22.35;43.88;97545.60;1636614;86;21056;-64
2021/06/13 10:14:49;;;;;;;2.70;1.52;;;;;;;22.59;42.03;97527.41;1631772;88;21556;-65
2021/06/13 10:17:19;;;;;;;1.00;0.80;;;;;;;22.68;42.37;97520.78;1633148;88;21148;-65
2021/06/13 10:19:48;;;;;;;1.37;0.93;;;;;;;22.55;42.98;97536.84;1631202;87;21198;-67
2021/06/13 10:22:18;;;;;;;1.17;0.78;;;;;;;22.37;42.60;97544.36;1628708;86;21056;-66
2021/06/13 10:24:49;;;;;;;1.35;0.88;;;;;;;22.20;43.52;97538.10;1622479;87;21052;-65
2021/06/13 10:27:19;;;;;;;0.40;0.40;;;;;;;22.06;42.62;97545.95;1622363;87;21091;-66
2021/06/13 10:29:51;;;;;;;1.77;0.50;;;;;;;21.92;42.82;97539.22;1622466;87;21527;-67
2021/06/13 10:32:23;;;;;;;0.80;0.70;;;;;;;21.63;43.29;97550.05;1622486;87;21099;-67
2021/06/13 10:34:50;;;;;;;4.75;0.90;;;;;;;21.30;43.92;97559.67;1621372;87;21630;-67
2021/06/13 10:37:18;;;;;;;1.72;1.05;;;;;;;21.02;44.25;97567.24;1622479;87;21126;-67
2021/06/13 10:39:48;;;;;;;2.08;0.80;;;;;;;20.86;44.90;97572.57;1622495;87;21024;-66
2021/06/13 10:42:16;;;;;;;0.55;0.55;;;;;;;20.82;44.96;97568.23;1622014;87;21100;-65
2021/06/13 10:44:53;;;;;;;0.65;0.60;;;;;;;20.83;44.92;97568.55;1622423;87;21051;-67
2021/06/13 10:47:22;;;;;;;1.32;0.57;;;;;;;21.04;45.00;97568.66;1622231;87;21135;-63
2021/06/13 10:49:56;;;;;;;1.52;0.70;;;;;;;21.49;43.53;97569.72;1622475;87;21157;-63
2021/06/13 10:52:29;;;;;;;0.60;0.50;;;;;;;21.75;42.68;97566.23;1621603;87;21163;-66
2021/06/13 10:55:01;;;;;;;0.62;0.60;;;;;;;22.08;41.83;97568.48;1622246;87;21198;-66
2021/06/13 10:57:46;;;;;;;0.70;0.60;;;;;;;22.53;42.26;97568.00;1623089;87;21104;-66
2021/06/13 11:00:25;;;;;;;2.58;0.70;;;;;;;22.92;41.78;97566.05;1629122;87;21102;-64
2021/06/13 11:02:58;;;;;;;1.15;0.60;;;;;;;23.21;41.23;97570.94;1629035;87;21153;-66
2021/06/13 11:05:45;;;;;;;0.50;0.40;;;;;;;23.49;39.28;97567.59;1628258;87;21665;-66
2021/06/13 11:08:12;;;;;;;;;;;;;;;23.60;39.62;97563.58;1631757;88;21678;-66
2021/06/13 11:10:40;;;;;;;1.77;0.62;;;;;;;23.90;38.24;97562.03;1628257;88;20175;-65
2021/06/13 11:13:13;;;;;;;0.40;0.40;;;;;;;24.15;36.56;97567.55;1628907;88;21116;-67
2021/06/13 11:15:48;;;;;;;0.40;0.40;;;;;;;24.33;36.43;97560.70;1629513;87;21074;-66
2021/06/13 11:18:29;;;;;;;19.40;9.98;;;;;;;24.33;37.20;97571.31;1629551;88;21054;-66
2021/06/13 11:21:08;;;;;;;12.90;8.33;;;;;;;24.02;35.07;97566.77;1629674;88;21086;-66
2021/06/13 11:23:40;;;;;;;12.45;7.78;;;;;;;23.88;35.98;97556.69;1616457;88;21105;-66
2021/06/13 11:26:11;;;;;;;25.00;15.10;;;;;;;23.61;36.80;97549.30;1611542;88;21100;-65
2021/06/13 11:28:45;;;;;;;1.87;1.67;;;;;;;23.54;36.40;97558.42;1577021;90;21026;-65
2021/06/13 11:31:17;;;;;;;1.20;1.00;;;;;;;23.51;36.14;97561.00;1600201;90;21065;-66
2021/06/13 11:33:58;;;;;;;2.37;0.70;;;;;;;23.50;36.12;97550.11;1600228;90;21065;-65
2021/06/13 11:36:39;;;;;;;0.93;0.70;;;;;;;23.44;36.08;97562.98;1611856;89;21577;-66
2021/06/13 11:39:16;;;;;;;0.82;0.68;;;;;;;23.27;35.92;97562.05;1611418;89;21592;-66
2021/06/13 11:41:46;;;;;;;2.77;0.62;;;;;;;23.03;37.63;97569.20;1611574;89;21090;-66
2021/06/13 11:44:25;;;;;;;3.80;0.50;;;;;;;22.65;35.41;97574.12;1609285;89;21544;-67
2021/06/13 11:46:54;;;;;;;1.30;0.60;;;;;;;22.64;36.59;97576.50;1606787;89;21176;-66
2021/06/13 11:49:42;;;;;;;1.87;0.70;;;;;;;22.58;36.35;97573.42;1606748;89;21033;-64
2021/06/13 11:52:09;;;;;;;0.50;0.47;;;;;;;22.55;36.21;97566.76;1609063;89;21641;-66